sensor_id;sensor_type;location;lat;lon;timestamp;P1;durP1;ratioP1;P2;durP2;ratioP2
78288;SDS011;67539;48.752;12.922;2023-11-22T00:00:17;4.85;;;4.32;;
78288;SDS011;67539;48.752;12.922;2023-11-22T00:02:48;4.72;;;4.32;;
78288;SDS011;67539;48.752;12.922;2023-11-22T00:05:17;5.05;;;4.43;;
78288;SDS011;67539;48.752;12.922;2023-11-22T00:07:45;5.25;;;4.72;;
78288;SDS011;67539;48.752;12.922;2023-11-22T00:10:13;4.40;;;4.00;;
78288;SDS011;67539;48.752;12.922;2023-11-22T00:12:42;3.92;;;2.85;;
78288;SDS011;67539;48.752;12.922;2023-11-22T00:15:10;3.25;;;2.95;;
78288;SDS011;67539;48.752;12.922;2023-11-22T00:17:39;4.45;;;3.88;;
78288;SDS011;67539;48.752;12.922;2023-11-22T00:20:09;5.38;;;4.13;;
78288;SDS011;67539;48.752;12.922;2023-11-22T00:22:38;4.93;;;4.43;;
78288;SDS011;67539;48.752;12.922;2023-11-22T00:25:07;4.75;;;4.22;;
78288;SDS011;67539;48.752;12.922;2023-11-22T00:27:40;4.82;;;4.13;;
78288;SDS011;67539;48.752;12.922;2023-11-22T00:30:09;4.60;;;4.13;;
78288;SDS011;67539;48.752;12.922;2023-11-22T00:32:38;5.78;;;3.72;;
78288;SDS011;67539;48.752;12.922;2023-11-22T00:35:09;3.40;;;2.55;;
78288;SDS011;67539;48.752;12.922;2023-11-22T00:37:37;2.90;;;2.47;;
78288;SDS011;67539;48.752;12.922;2023-11-22T00:40:06;3.45;;;1.98;;
78288;SDS011;67539;48.752;12.922;2023-11-22T00:42:38;1.67;;;1.58;;
78288;SDS011;67539;48.752;12.922;2023-11-22T00:45:09;2.78;;;1.77;;
78288;SDS011;67539;48.752;12.922;2023-11-22T00:47:37;1.98;;;1.20;;
78288;SDS011;67539;48.752;12.922;2023-11-22T00:50:06;1.58;;;1.08;;
78288;SDS011;67539;48.752;12.922;2023-11-22T00:52:37;2.67;;;1.55;;
78288;SDS011;67539;48.752;12.922;2023-11-22T00:55:05;2.65;;;2.15;;
78288;SDS011;67539;48.752;12.922;2023-11-22T00:57:34;4.43;;;3.35;;
78288;SDS011;67539;48.752;12.922;2023-11-22T01:00:04;4.20;;;3.80;;
78288;SDS011;67539;48.752;12.922;2023-11-22T01:02:35;3.65;;;2.80;;
78288;SDS011;67539;48.752;12.922;2023-11-22T01:05:05;2.83;;;2.33;;
78288;SDS011;67539;48.752;12.922;2023-11-22T01:07:38;4.25;;;3.33;;
78288;SDS011;67539;48.752;12.922;2023-11-22T01:10:07;3.65;;;3.10;;
78288;SDS011;67539;48.752;12.922;2023-11-22T01:12:36;3.75;;;3.03;;
78288;SDS011;67539;48.752;12.922;2023-11-22T01:15:05;4.10;;;3.10;;
78288;SDS011;67539;48.752;12.922;2023-11-22T01:17:34;3.45;;;2.88;;
78288;SDS011;67539;48.752;12.922;2023-11-22T01:20:03;3.80;;;3.20;;
78288;SDS011;67539;48.752;12.922;2023-11-22T01:22:34;3.95;;;2.80;;
78288;SDS011;67539;48.752;12.922;2023-11-22T01:25:03;3.45;;;2.83;;
78288;SDS011;67539;48.752;12.922;2023-11-22T01:27:33;3.92;;;3.10;;
78288;SDS011;67539;48.752;12.922;2023-11-22T01:30:02;4.10;;;3.10;;
78288;SDS011;67539;48.752;12.922;2023-11-22T01:32:33;4.28;;;2.78;;
78288;SDS011;67539;48.752;12.922;2023-11-22T01:35:02;5.03;;;3.65;;
78288;SDS011;67539;48.752;12.922;2023-11-22T01:37:32;4.35;;;3.20;;
78288;SDS011;67539;48.752;12.922;2023-11-22T01:40:00;3.75;;;3.35;;
78288;SDS011;67539;48.752;12.922;2023-11-22T01:42:31;3.92;;;3.25;;
78288;SDS011;67539;48.752;12.922;2023-11-22T01:44:59;4.60;;;3.17;;
78288;SDS011;67539;48.752;12.922;2023-11-22T01:47:27;3.45;;;3.03;;
78288;SDS011;67539;48.752;12.922;2023-11-22T01:49:57;5.72;;;3.10;;
78288;SDS011;67539;48.752;12.922;2023-11-22T01:52:25;4.65;;;3.33;;
78288;SDS011;67539;48.752;12.922;2023-11-22T01:54:55;3.88;;;2.80;;
78288;SDS011;67539;48.752;12.922;2023-11-22T01:57:24;3.70;;;3.25;;
78288;SDS011;67539;48.752;12.922;2023-11-22T01:59:53;3.95;;;3.28;;
78288;SDS011;67539;48.752;12.922;2023-11-22T02:02:21;4.78;;;3.22;;
78288;SDS011;67539;48.752;12.922;2023-11-22T02:04:50;4.55;;;3.40;;
78288;SDS011;67539;48.752;12.922;2023-11-22T02:07:18;3.42;;;2.90;;
78288;SDS011;67539;48.752;12.922;2023-11-22T02:09:48;5.43;;;3.80;;
78288;SDS011;67539;48.752;12.922;2023-11-22T02:12:16;3.35;;;2.78;;
78288;SDS011;67539;48.752;12.922;2023-11-22T02:14:44;3.00;;;2.08;;
78288;SDS011;67539;48.752;12.922;2023-11-22T02:17:13;4.20;;;3.20;;
78288;SDS011;67539;48.752;12.922;2023-11-22T02:19:43;3.88;;;3.08;;
78288;SDS011;67539;48.752;12.922;2023-11-22T02:22:12;6.00;;;4.75;;
78288;SDS011;67539;48.752;12.922;2023-11-22T02:24:41;7.55;;;5.60;;
78288;SDS011;67539;48.752;12.922;2023-11-22T02:27:09;3.97;;;3.42;;
78288;SDS011;67539;48.752;12.922;2023-11-22T02:29:37;4.72;;;3.60;;
78288;SDS011;67539;48.752;12.922;2023-11-22T02:32:06;3.13;;;2.30;;
78288;SDS011;67539;48.752;12.922;2023-11-22T02:34:35;3.13;;;2.08;;
78288;SDS011;67539;48.752;12.922;2023-11-22T02:37:05;3.28;;;1.63;;
78288;SDS011;67539;48.752;12.922;2023-11-22T02:39:35;1.70;;;1.00;;
78288;SDS011;67539;48.752;12.922;2023-11-22T02:42:16;2.53;;;1.85;;
78288;SDS011;67539;48.752;12.922;2023-11-22T02:44:44;1.88;;;1.20;;
78288;SDS011;67539;48.752;12.922;2023-11-22T02:47:12;2.03;;;1.35;;
78288;SDS011;67539;48.752;12.922;2023-11-22T02:49:40;2.13;;;1.10;;
78288;SDS011;67539;48.752;12.922;2023-11-22T02:52:08;1.25;;;0.88;;
78288;SDS011;67539;48.752;12.922;2023-11-22T02:54:38;2.30;;;1.27;;
78288;SDS011;67539;48.752;12.922;2023-11-22T02:57:10;2.28;;;1.02;;
78288;SDS011;67539;48.752;12.922;2023-11-22T02:59:40;1.77;;;1.20;;
78288;SDS011;67539;48.752;12.922;2023-11-22T03:02:09;2.10;;;0.88;;
78288;SDS011;67539;48.752;12.922;2023-11-22T03:04:37;1.90;;;0.98;;
78288;SDS011;67539;48.752;12.922;2023-11-22T03:07:06;1.65;;;0.90;;
78288;SDS011;67539;48.752;12.922;2023-11-22T03:09:34;2.50;;;1.00;;
78288;SDS011;67539;48.752;12.922;2023-11-22T03:12:03;1.60;;;0.80;;
78288;SDS011;67539;48.752;12.922;2023-11-22T03:14:34;1.27;;;1.08;;
78288;SDS011;67539;48.752;12.922;2023-11-22T03:17:03;1.55;;;0.88;;
78288;SDS011;67539;48.752;12.922;2023-11-22T03:19:31;1.65;;;0.88;;
78288;SDS011;67539;48.752;12.922;2023-11-22T03:22:00;1.40;;;0.80;;
78288;SDS011;67539;48.752;12.922;2023-11-22T03:24:29;1.10;;;1.00;;
78288;SDS011;67539;48.752;12.922;2023-11-22T03:26:57;1.48;;;0.90;;
78288;SDS011;67539;48.752;12.922;2023-11-22T03:29:26;1.30;;;0.80;;
78288;SDS011;67539;48.752;12.922;2023-11-22T03:31:56;0.90;;;0.70;;
78288;SDS011;67539;48.752;12.922;2023-11-22T03:34:24;0.63;;;0.57;;
78288;SDS011;67539;48.752;12.922;2023-11-22T03:36:53;1.42;;;1.10;;
78288;SDS011;67539;48.752;12.922;2023-11-22T03:39:21;1.52;;;0.85;;
78288;SDS011;67539;48.752;12.922;2023-11-22T03:41:49;1.10;;;0.63;;
78288;SDS011;67539;48.752;12.922;2023-11-22T03:44:17;1.33;;;0.70;;
78288;SDS011;67539;48.752;12.922;2023-11-22T03:46:45;0.90;;;0.50;;
78288;SDS011;67539;48.752;12.922;2023-11-22T03:49:15;3.38;;;1.38;;
78288;SDS011;67539;48.752;12.922;2023-11-22T03:51:43;1.08;;;0.80;;
78288;SDS011;67539;48.752;12.922;2023-11-22T03:54:11;2.45;;;0.90;;
78288;SDS011;67539;48.752;12.922;2023-11-22T03:56:40;1.13;;;0.68;;
78288;SDS011;67539;48.752;12.922;2023-11-22T03:59:08;1.00;;;0.80;;
78288;SDS011;67539;48.752;12.922;2023-11-22T04:01:36;0.80;;;0.60;;
78288;SDS011;67539;48.752;12.922;2023-11-22T04:04:04;1.17;;;0.65;;
78288;SDS011;67539;48.752;12.922;2023-11-22T04:06:34;1.17;;;0.60;;
78288;SDS011;67539;48.752;12.922;2023-11-22T04:09:02;0.80;;;0.70;;
78288;SDS011;67539;48.752;12.922;2023-11-22T04:11:30;1.33;;;0.80;;
78288;SDS011;67539;48.752;12.922;2023-11-22T04:13:59;1.25;;;0.93;;
78288;SDS011;67539;48.752;12.922;2023-11-22T04:16:27;0.77;;;0.73;;
78288;SDS011;67539;48.752;12.922;2023-11-22T04:18:55;1.48;;;0.90;;
78288;SDS011;67539;48.752;12.922;2023-11-22T04:21:24;1.50;;;0.90;;
78288;SDS011;67539;48.752;12.922;2023-11-22T04:23:53;1.92;;;1.60;;
78288;SDS011;67539;48.752;12.922;2023-11-22T04:26:22;2.30;;;2.10;;
78288;SDS011;67539;48.752;12.922;2023-11-22T04:28:51;2.95;;;2.65;;
78288;SDS011;67539;48.752;12.922;2023-11-22T04:31:19;3.95;;;3.10;;
78288;SDS011;67539;48.752;12.922;2023-11-22T04:33:47;6.50;;;4.80;;
78288;SDS011;67539;48.752;12.922;2023-11-22T04:36:17;5.25;;;3.55;;
78288;SDS011;67539;48.752;12.922;2023-11-22T04:38:48;1.95;;;1.55;;
78288;SDS011;67539;48.752;12.922;2023-11-22T04:41:18;2.28;;;1.77;;
78288;SDS011;67539;48.752;12.922;2023-11-22T04:43:46;5.45;;;5.05;;
78288;SDS011;67539;48.752;12.922;2023-11-22T04:46:14;3.90;;;3.55;;
78288;SDS011;67539;48.752;12.922;2023-11-22T04:48:42;2.88;;;2.42;;
78288;SDS011;67539;48.752;12.922;2023-11-22T04:51:11;1.63;;;1.10;;
78288;SDS011;67539;48.752;12.922;2023-11-22T04:53:39;3.60;;;1.30;;
78288;SDS011;67539;48.752;12.922;2023-11-22T04:56:10;1.75;;;1.10;;
78288;SDS011;67539;48.752;12.922;2023-11-22T04:58:40;2.83;;;1.33;;
78288;SDS011;67539;48.752;12.922;2023-11-22T05:01:08;1.42;;;1.00;;
78288;SDS011;67539;48.752;12.922;2023-11-22T05:03:37;2.55;;;1.30;;
78288;SDS011;67539;48.752;12.922;2023-11-22T05:06:05;1.00;;;0.80;;
78288;SDS011;67539;48.752;12.922;2023-11-22T05:08:33;1.45;;;1.05;;
78288;SDS011;67539;48.752;12.922;2023-11-22T05:11:02;1.50;;;0.85;;
78288;SDS011;67539;48.752;12.922;2023-11-22T05:13:31;1.98;;;1.10;;
78288;SDS011;67539;48.752;12.922;2023-11-22T05:16:00;2.25;;;1.45;;
78288;SDS011;67539;48.752;12.922;2023-11-22T05:18:29;1.67;;;1.02;;
78288;SDS011;67539;48.752;12.922;2023-11-22T05:20:57;1.65;;;1.05;;
78288;SDS011;67539;48.752;12.922;2023-11-22T05:23:25;1.55;;;1.05;;
78288;SDS011;67539;48.752;12.922;2023-11-22T05:25:54;1.55;;;1.17;;
78288;SDS011;67539;48.752;12.922;2023-11-22T05:28:22;1.88;;;1.30;;
78288;SDS011;67539;48.752;12.922;2023-11-22T05:30:50;2.22;;;1.20;;
78288;SDS011;67539;48.752;12.922;2023-11-22T05:33:20;1.35;;;1.08;;
78288;SDS011;67539;48.752;12.922;2023-11-22T05:35:48;1.48;;;1.05;;
78288;SDS011;67539;48.752;12.922;2023-11-22T05:38:16;1.65;;;1.30;;
78288;SDS011;67539;48.752;12.922;2023-11-22T05:40:45;2.13;;;1.35;;
78288;SDS011;67539;48.752;12.922;2023-11-22T05:43:14;1.33;;;1.17;;
78288;SDS011;67539;48.752;12.922;2023-11-22T05:45:42;2.25;;;1.55;;
78288;SDS011;67539;48.752;12.922;2023-11-22T05:48:10;1.52;;;1.10;;
78288;SDS011;67539;48.752;12.922;2023-11-22T05:50:40;3.80;;;3.08;;
78288;SDS011;67539;48.752;12.922;2023-11-22T05:53:08;1.50;;;1.08;;
78288;SDS011;67539;48.752;12.922;2023-11-22T05:55:37;1.88;;;1.58;;
78288;SDS011;67539;48.752;12.922;2023-11-22T05:58:06;2.05;;;1.52;;
78288;SDS011;67539;48.752;12.922;2023-11-22T06:00:34;2.42;;;1.40;;
78288;SDS011;67539;48.752;12.922;2023-11-22T06:03:04;2.03;;;1.35;;
78288;SDS011;67539;48.752;12.922;2023-11-22T06:05:32;2.15;;;1.30;;
78288;SDS011;67539;48.752;12.922;2023-11-22T06:08:02;2.38;;;1.23;;
78288;SDS011;67539;48.752;12.922;2023-11-22T06:10:30;2.20;;;1.08;;
78288;SDS011;67539;48.752;12.922;2023-11-22T06:13:00;1.50;;;1.10;;
78288;SDS011;67539;48.752;12.922;2023-11-22T06:15:28;3.13;;;2.20;;
78288;SDS011;67539;48.752;12.922;2023-11-22T06:17:58;1.35;;;1.10;;
78288;SDS011;67539;48.752;12.922;2023-11-22T06:20:27;4.72;;;1.92;;
78288;SDS011;67539;48.752;12.922;2023-11-22T06:22:55;2.15;;;1.48;;
78288;SDS011;67539;48.752;12.922;2023-11-22T06:25:24;1.90;;;1.20;;
78288;SDS011;67539;48.752;12.922;2023-11-22T06:27:53;2.27;;;1.70;;
78288;SDS011;67539;48.752;12.922;2023-11-22T06:30:24;1.53;;;1.13;;
78288;SDS011;67539;48.752;12.922;2023-11-22T06:32:53;1.38;;;1.13;;
78288;SDS011;67539;48.752;12.922;2023-11-22T06:35:22;2.20;;;1.40;;
78288;SDS011;67539;48.752;12.922;2023-11-22T06:37:50;1.95;;;1.33;;
78288;SDS011;67539;48.752;12.922;2023-11-22T06:40:18;1.57;;;1.10;;
78288;SDS011;67539;48.752;12.922;2023-11-22T06:42:48;1.60;;;1.43;;
78288;SDS011;67539;48.752;12.922;2023-11-22T06:45:16;3.67;;;2.23;;
78288;SDS011;67539;48.752;12.922;2023-11-22T06:47:44;2.75;;;1.90;;
78288;SDS011;67539;48.752;12.922;2023-11-22T06:50:13;2.38;;;2.17;;
78288;SDS011;67539;48.752;12.922;2023-11-22T06:52:42;2.55;;;1.70;;
78288;SDS011;67539;48.752;12.922;2023-11-22T06:55:11;1.63;;;1.42;;
78288;SDS011;67539;48.752;12.922;2023-11-22T06:57:39;2.03;;;1.42;;
78288;SDS011;67539;48.752;12.922;2023-11-22T07:00:10;1.90;;;1.60;;
78288;SDS011;67539;48.752;12.922;2023-11-22T07:02:38;3.33;;;2.00;;
78288;SDS011;67539;48.752;12.922;2023-11-22T07:05:07;2.17;;;1.58;;
78288;SDS011;67539;48.752;12.922;2023-11-22T07:07:36;1.77;;;1.27;;
78288;SDS011;67539;48.752;12.922;2023-11-22T07:10:05;2.25;;;1.67;;
78288;SDS011;67539;48.752;12.922;2023-11-22T07:12:33;2.40;;;1.80;;
78288;SDS011;67539;48.752;12.922;2023-11-22T07:15:02;2.70;;;2.07;;
78288;SDS011;67539;48.752;12.922;2023-11-22T07:17:33;3.75;;;2.92;;
78288;SDS011;67539;48.752;12.922;2023-11-22T07:20:01;2.80;;;2.50;;
78288;SDS011;67539;48.752;12.922;2023-11-22T07:22:34;2.58;;;2.38;;
78288;SDS011;67539;48.752;12.922;2023-11-22T07:25:03;3.77;;;3.37;;
78288;SDS011;67539;48.752;12.922;2023-11-22T07:27:33;2.65;;;2.40;;
78288;SDS011;67539;48.752;12.922;2023-11-22T07:30:01;3.05;;;2.72;;
78288;SDS011;67539;48.752;12.922;2023-11-22T07:32:29;3.10;;;2.60;;
78288;SDS011;67539;48.752;12.922;2023-11-22T07:34:59;3.38;;;2.65;;
78288;SDS011;67539;48.752;12.922;2023-11-22T07:37:29;3.90;;;2.95;;
78288;SDS011;67539;48.752;12.922;2023-11-22T07:39:58;3.33;;;2.90;;
78288;SDS011;67539;48.752;12.922;2023-11-22T07:42:27;4.70;;;3.58;;
78288;SDS011;67539;48.752;12.922;2023-11-22T07:44:55;3.28;;;2.78;;
78288;SDS011;67539;48.752;12.922;2023-11-22T07:47:23;3.42;;;3.13;;
78288;SDS011;67539;48.752;12.922;2023-11-22T07:49:52;4.85;;;4.45;;
78288;SDS011;67539;48.752;12.922;2023-11-22T07:52:23;6.85;;;3.60;;
78288;SDS011;67539;48.752;12.922;2023-11-22T07:54:56;3.83;;;3.35;;
78288;SDS011;67539;48.752;12.922;2023-11-22T07:57:24;3.67;;;3.22;;
78288;SDS011;67539;48.752;12.922;2023-11-22T07:59:52;3.80;;;3.22;;
78288;SDS011;67539;48.752;12.922;2023-11-22T08:02:21;3.60;;;2.95;;
78288;SDS011;67539;48.752;12.922;2023-11-22T08:04:50;3.35;;;2.92;;
78288;SDS011;67539;48.752;12.922;2023-11-22T08:07:19;3.53;;;2.72;;
78288;SDS011;67539;48.752;12.922;2023-11-22T08:09:50;3.63;;;3.10;;
78288;SDS011;67539;48.752;12.922;2023-11-22T08:12:19;3.40;;;3.10;;
78288;SDS011;67539;48.752;12.922;2023-11-22T08:14:47;3.80;;;2.90;;
78288;SDS011;67539;48.752;12.922;2023-11-22T08:17:15;3.45;;;3.15;;
78288;SDS011;67539;48.752;12.922;2023-11-22T08:19:43;3.05;;;2.75;;
78288;SDS011;67539;48.752;12.922;2023-11-22T08:22:14;3.15;;;2.63;;
78288;SDS011;67539;48.752;12.922;2023-11-22T08:24:42;3.20;;;2.90;;
78288;SDS011;67539;48.752;12.922;2023-11-22T08:27:11;2.90;;;2.60;;
78288;SDS011;67539;48.752;12.922;2023-11-22T08:29:41;4.05;;;2.70;;
78288;SDS011;67539;48.752;12.922;2023-11-22T08:32:12;3.33;;;3.03;;
78288;SDS011;67539;48.752;12.922;2023-11-22T08:34:41;3.15;;;2.80;;
78288;SDS011;67539;48.752;12.922;2023-11-22T08:37:12;2.92;;;2.63;;
78288;SDS011;67539;48.752;12.922;2023-11-22T08:39:40;3.05;;;2.70;;
78288;SDS011;67539;48.752;12.922;2023-11-22T08:42:08;3.58;;;2.90;;
78288;SDS011;67539;48.752;12.922;2023-11-22T08:44:37;3.47;;;2.95;;
78288;SDS011;67539;48.752;12.922;2023-11-22T08:47:06;3.83;;;2.88;;
78288;SDS011;67539;48.752;12.922;2023-11-22T08:49:34;2.78;;;2.50;;
78288;SDS011;67539;48.752;12.922;2023-11-22T08:52:03;2.70;;;2.40;;
78288;SDS011;67539;48.752;12.922;2023-11-22T08:54:33;3.55;;;2.80;;
78288;SDS011;67539;48.752;12.922;2023-11-22T08:57:02;2.58;;;2.30;;
78288;SDS011;67539;48.752;12.922;2023-11-22T08:59:32;3.55;;;2.90;;
78288;SDS011;67539;48.752;12.922;2023-11-22T09:02:06;2.60;;;2.38;;
78288;SDS011;67539;48.752;12.922;2023-11-22T09:04:36;2.80;;;2.22;;
78288;SDS011;67539;48.752;12.922;2023-11-22T09:07:04;3.17;;;2.15;;
78288;SDS011;67539;48.752;12.922;2023-11-22T09:09:33;3.75;;;2.65;;
78288;SDS011;67539;48.752;12.922;2023-11-22T09:12:01;4.65;;;3.00;;
78288;SDS011;67539;48.752;12.922;2023-11-22T09:14:29;2.97;;;2.30;;
78288;SDS011;67539;48.752;12.922;2023-11-22T09:16:57;3.28;;;2.78;;
78288;SDS011;67539;48.752;12.922;2023-11-22T09:19:29;2.55;;;2.30;;
78288;SDS011;67539;48.752;12.922;2023-11-22T09:21:57;2.00;;;1.80;;
78288;SDS011;67539;48.752;12.922;2023-11-22T09:24:26;2.90;;;1.80;;
78288;SDS011;67539;48.752;12.922;2023-11-22T09:26:54;2.40;;;1.80;;
78288;SDS011;67539;48.752;12.922;2023-11-22T09:29:22;2.50;;;1.60;;
78288;SDS011;67539;48.752;12.922;2023-11-22T09:31:52;2.33;;;2.08;;
78288;SDS011;67539;48.752;12.922;2023-11-22T09:34:21;2.47;;;2.20;;
78288;SDS011;67539;48.752;12.922;2023-11-22T09:36:50;2.33;;;1.98;;
78288;SDS011;67539;48.752;12.922;2023-11-22T09:39:19;3.13;;;2.50;;
78288;SDS011;67539;48.752;12.922;2023-11-22T09:41:48;3.90;;;2.22;;
78288;SDS011;67539;48.752;12.922;2023-11-22T09:44:18;2.22;;;2.00;;
78288;SDS011;67539;48.752;12.922;2023-11-22T09:46:48;1.98;;;1.75;;
78288;SDS011;67539;48.752;12.922;2023-11-22T09:49:19;3.45;;;1.80;;
78288;SDS011;67539;48.752;12.922;2023-11-22T09:51:52;2.47;;;1.85;;
78288;SDS011;67539;48.752;12.922;2023-11-22T09:54:24;2.22;;;2.03;;
78288;SDS011;67539;48.752;12.922;2023-11-22T09:56:57;2.72;;;2.35;;
78288;SDS011;67539;48.752;12.922;2023-11-22T09:59:29;2.20;;;1.88;;
78288;SDS011;67539;48.752;12.922;2023-11-22T10:01:59;3.25;;;1.80;;
78288;SDS011;67539;48.752;12.922;2023-11-22T10:04:27;3.40;;;2.60;;
78288;SDS011;67539;48.752;12.922;2023-11-22T10:06:59;2.58;;;2.10;;
78288;SDS011;67539;48.752;12.922;2023-11-22T10:09:27;2.92;;;2.50;;
78288;SDS011;67539;48.752;12.922;2023-11-22T10:12:01;3.40;;;2.38;;
78288;SDS011;67539;48.752;12.922;2023-11-22T10:14:30;2.97;;;2.35;;
78288;SDS011;67539;48.752;12.922;2023-11-22T10:17:01;4.07;;;2.30;;
78288;SDS011;67539;48.752;12.922;2023-11-22T10:19:29;3.75;;;2.55;;
78288;SDS011;67539;48.752;12.922;2023-11-22T10:22:03;2.47;;;2.22;;
78288;SDS011;67539;48.752;12.922;2023-11-22T10:27:02;3.35;;;2.58;;
78288;SDS011;67539;48.752;12.922;2023-11-22T10:29:30;2.63;;;2.22;;
78288;SDS011;67539;48.752;12.922;2023-11-22T10:32:00;2.38;;;2.10;;
78288;SDS011;67539;48.752;12.922;2023-11-22T10:34:30;2.83;;;2.00;;
78288;SDS011;67539;48.752;12.922;2023-11-22T10:36:58;2.35;;;1.98;;
78288;SDS011;67539;48.752;12.922;2023-11-22T10:39:31;2.92;;;2.20;;
78288;SDS011;67539;48.752;12.922;2023-11-22T10:41:59;2.97;;;2.30;;
78288;SDS011;67539;48.752;12.922;2023-11-22T10:44:31;3.15;;;2.63;;
78288;SDS011;67539;48.752;12.922;2023-11-22T10:47:02;3.75;;;3.05;;
78288;SDS011;67539;48.752;12.922;2023-11-22T10:49:31;5.45;;;2.38;;
78288;SDS011;67539;48.752;12.922;2023-11-22T10:51:59;3.22;;;2.38;;
78288;SDS011;67539;48.752;12.922;2023-11-22T10:54:33;3.35;;;2.83;;
78288;SDS011;67539;48.752;12.922;2023-11-22T10:57:06;3.03;;;2.35;;
78288;SDS011;67539;48.752;12.922;2023-11-22T10:59:34;2.72;;;2.40;;
78288;SDS011;67539;48.752;12.922;2023-11-22T11:02:04;3.28;;;2.40;;
78288;SDS011;67539;48.752;12.922;2023-11-22T11:04:36;2.90;;;2.40;;
78288;SDS011;67539;48.752;12.922;2023-11-22T11:07:11;3.67;;;2.22;;
78288;SDS011;67539;48.752;12.922;2023-11-22T11:09:43;2.55;;;2.22;;
78288;SDS011;67539;48.752;12.922;2023-11-22T11:12:13;2.78;;;2.33;;
78288;SDS011;67539;48.752;12.922;2023-11-22T11:14:41;3.70;;;3.00;;
78288;SDS011;67539;48.752;12.922;2023-11-22T11:17:11;3.10;;;2.40;;
78288;SDS011;67539;48.752;12.922;2023-11-22T11:19:42;3.10;;;2.38;;
78288;SDS011;67539;48.752;12.922;2023-11-22T11:22:10;2.88;;;2.50;;
78288;SDS011;67539;48.752;12.922;2023-11-22T11:24:40;2.83;;;2.35;;
78288;SDS011;67539;48.752;12.922;2023-11-22T11:27:12;5.45;;;4.85;;
78288;SDS011;67539;48.752;12.922;2023-11-22T11:29:40;7.72;;;5.70;;
78288;SDS011;67539;48.752;12.922;2023-11-22T11:32:10;13.23;;;10.00;;
78288;SDS011;67539;48.752;12.922;2023-11-22T11:34:49;8.52;;;7.30;;
78288;SDS011;67539;48.752;12.922;2023-11-22T11:37:18;7.43;;;5.32;;
78288;SDS011;67539;48.752;12.922;2023-11-22T11:39:46;5.43;;;4.78;;
78288;SDS011;67539;48.752;12.922;2023-11-22T11:42:16;6.10;;;4.50;;
78288;SDS011;67539;48.752;12.922;2023-11-22T11:44:51;4.13;;;3.45;;
78288;SDS011;67539;48.752;12.922;2023-11-22T11:47:32;3.67;;;3.03;;
78288;SDS011;67539;48.752;12.922;2023-11-22T11:50:01;4.30;;;3.53;;
78288;SDS011;67539;48.752;12.922;2023-11-22T11:52:31;3.80;;;3.28;;
78288;SDS011;67539;48.752;12.922;2023-11-22T11:54:59;3.92;;;3.25;;
78288;SDS011;67539;48.752;12.922;2023-11-22T11:57:31;4.35;;;3.67;;
78288;SDS011;67539;48.752;12.922;2023-11-22T11:59:59;3.60;;;3.00;;
78288;SDS011;67539;48.752;12.922;2023-11-22T12:02:36;4.20;;;3.72;;
78288;SDS011;67539;48.752;12.922;2023-11-22T12:05:05;3.90;;;3.17;;
78288;SDS011;67539;48.752;12.922;2023-11-22T12:07:35;3.30;;;2.90;;
78288;SDS011;67539;48.752;12.922;2023-11-22T12:10:04;4.22;;;3.50;;
78288;SDS011;67539;48.752;12.922;2023-11-22T12:12:35;3.78;;;3.47;;
78288;SDS011;67539;48.752;12.922;2023-11-22T12:15:04;92.28;;;42.05;;
78288;SDS011;67539;48.752;12.922;2023-11-22T12:17:33;60.67;;;40.38;;
78288;SDS011;67539;48.752;12.922;2023-11-22T12:20:08;46.45;;;36.53;;
78288;SDS011;67539;48.752;12.922;2023-11-22T12:22:42;7.13;;;6.38;;
78288;SDS011;67539;48.752;12.922;2023-11-22T12:25:10;6.22;;;5.63;;
78288;SDS011;67539;48.752;12.922;2023-11-22T12:27:40;4.15;;;3.72;;
78288;SDS011;67539;48.752;12.922;2023-11-22T12:30:09;4.18;;;3.53;;
78288;SDS011;67539;48.752;12.922;2023-11-22T12:32:56;4.25;;;3.85;;
78288;SDS011;67539;48.752;12.922;2023-11-22T12:35:24;6.20;;;4.30;;
78288;SDS011;67539;48.752;12.922;2023-11-22T12:37:52;4.93;;;4.05;;
78288;SDS011;67539;48.752;12.922;2023-11-22T12:40:21;4.05;;;3.53;;
78288;SDS011;67539;48.752;12.922;2023-11-22T12:42:51;4.10;;;3.63;;
78288;SDS011;67539;48.752;12.922;2023-11-22T12:45:20;4.70;;;4.20;;
78288;SDS011;67539;48.752;12.922;2023-11-22T12:47:50;4.68;;;4.10;;
78288;SDS011;67539;48.752;12.922;2023-11-22T12:50:29;4.80;;;4.30;;
78288;SDS011;67539;48.752;12.922;2023-11-22T12:52:58;4.82;;;3.97;;
78288;SDS011;67539;48.752;12.922;2023-11-22T12:55:26;4.25;;;3.50;;
78288;SDS011;67539;48.752;12.922;2023-11-22T12:57:59;4.75;;;3.90;;
78288;SDS011;67539;48.752;12.922;2023-11-22T13:00:29;4.53;;;3.40;;
78288;SDS011;67539;48.752;12.922;2023-11-22T13:02:58;3.63;;;3.20;;
78288;SDS011;67539;48.752;12.922;2023-11-22T13:05:29;6.13;;;4.80;;
78288;SDS011;67539;48.752;12.922;2023-11-22T13:07:58;6.65;;;4.93;;
78288;SDS011;67539;48.752;12.922;2023-11-22T13:10:28;5.72;;;4.90;;
78288;SDS011;67539;48.752;12.922;2023-11-22T13:12:56;5.30;;;4.80;;
78288;SDS011;67539;48.752;12.922;2023-11-22T13:15:26;6.25;;;5.15;;
78288;SDS011;67539;48.752;12.922;2023-11-22T13:17:55;5.75;;;5.15;;
78288;SDS011;67539;48.752;12.922;2023-11-22T13:20:25;7.10;;;5.60;;
78288;SDS011;67539;48.752;12.922;2023-11-22T13:22:53;5.50;;;4.85;;
78288;SDS011;67539;48.752;12.922;2023-11-22T13:25:22;7.50;;;5.38;;
78288;SDS011;67539;48.752;12.922;2023-11-22T13:27:51;7.13;;;5.95;;
78288;SDS011;67539;48.752;12.922;2023-11-22T13:30:19;6.73;;;5.50;;
78288;SDS011;67539;48.752;12.922;2023-11-22T13:32:50;5.85;;;5.28;;
78288;SDS011;67539;48.752;12.922;2023-11-22T13:35:20;6.70;;;5.95;;
78288;SDS011;67539;48.752;12.922;2023-11-22T13:37:48;6.60;;;5.87;;
78288;SDS011;67539;48.752;12.922;2023-11-22T13:40:17;7.33;;;6.10;;
78288;SDS011;67539;48.752;12.922;2023-11-22T13:42:49;8.43;;;6.50;;
78288;SDS011;67539;48.752;12.922;2023-11-22T13:45:19;7.60;;;6.80;;
78288;SDS011;67539;48.752;12.922;2023-11-22T13:47:48;10.10;;;7.83;;
78288;SDS011;67539;48.752;12.922;2023-11-22T13:50:21;8.93;;;7.37;;
78288;SDS011;67539;48.752;12.922;2023-11-22T13:52:50;9.67;;;7.83;;
78288;SDS011;67539;48.752;12.922;2023-11-22T13:55:19;8.63;;;7.30;;
78288;SDS011;67539;48.752;12.922;2023-11-22T13:57:49;9.90;;;7.63;;
78288;SDS011;67539;48.752;12.922;2023-11-22T14:00:18;11.57;;;9.13;;
78288;SDS011;67539;48.752;12.922;2023-11-22T14:02:49;10.17;;;7.60;;
78288;SDS011;67539;48.752;12.922;2023-11-22T14:05:20;8.43;;;7.13;;
78288;SDS011;67539;48.752;12.922;2023-11-22T14:07:49;10.83;;;8.47;;
78288;SDS011;67539;48.752;12.922;2023-11-22T14:10:18;9.30;;;8.07;;
78288;SDS011;67539;48.752;12.922;2023-11-22T14:12:48;8.90;;;7.33;;
78288;SDS011;67539;48.752;12.922;2023-11-22T14:15:17;10.67;;;8.00;;
78288;SDS011;67539;48.752;12.922;2023-11-22T14:17:46;9.97;;;8.40;;
78288;SDS011;67539;48.752;12.922;2023-11-22T14:20:17;9.87;;;8.07;;
78288;SDS011;67539;48.752;12.922;2023-11-22T14:22:49;10.00;;;8.00;;
78288;SDS011;67539;48.752;12.922;2023-11-22T14:25:17;11.93;;;9.17;;
78288;SDS011;67539;48.752;12.922;2023-11-22T14:27:46;10.13;;;9.03;;
78288;SDS011;67539;48.752;12.922;2023-11-22T14:30:19;10.23;;;8.63;;
78288;SDS011;67539;48.752;12.922;2023-11-22T14:32:48;9.63;;;8.10;;
78288;SDS011;67539;48.752;12.922;2023-11-22T14:35:18;9.23;;;8.30;;
78288;SDS011;67539;48.752;12.922;2023-11-22T14:37:46;10.77;;;8.20;;
78288;SDS011;67539;48.752;12.922;2023-11-22T14:40:15;10.87;;;8.57;;
78288;SDS011;67539;48.752;12.922;2023-11-22T14:42:46;12.77;;;9.70;;
78288;SDS011;67539;48.752;12.922;2023-11-22T14:45:18;11.70;;;9.87;;
78288;SDS011;67539;48.752;12.922;2023-11-22T14:47:47;12.77;;;10.87;;